CheckWX is a tool to help pilots better visualize weather data.  It is not intended as a substitute for an official pre-flight weather briefing.

12:23:46 UTC

KGBG METAR
Galesburg Municipal Airport
Galesburg, Illinois, USA
Current

2 hours ago

KGBG 060955Z AUTO 11004KT 10SM CLR 05/M04 A3009 RMK AO2 T00511038
Observed
Apr-6 @ 09:55 UTC
Wind
  • 110° at 4 KTS
Visibility
Flight Rules
VFR
Cloud Levels
  • Clear skies
Temperature
C / 41°F
Dewpoint
-4°C / 25°F
Humidity
53%
Altimeter
30.09" Hg
Pressure
1018.92 hPa
Previous

3 hours ago

KGBG 060935Z AUTO 12005KT 10SM CLR 06/M04 A3009 RMK AO2 T00571039
Observed
Apr-6 @ 09:35 UTC
Wind
  • 120° at 5 KTS
Visibility
Flight Rules
VFR
Cloud Levels
  • Clear skies
Temperature
C / 43°F
Dewpoint
-4°C / 25°F
Humidity
49%
Altimeter
30.09" Hg
Pressure
1018.92 hPa
Previous

3 hours ago

KGBG 060915Z AUTO 13005KT 10SM SCT120 06/M04 A3009 RMK AO2 T00601042
Observed
Apr-6 @ 09:15 UTC
Wind
  • 130° at 5 KTS
Visibility
Flight Rules
VFR
Cloud Levels
  • Scattered at 12,000' AGL
Temperature
C / 43°F
Dewpoint
-4°C / 25°F
Humidity
49%
Altimeter
30.09" Hg
Pressure
1018.92 hPa